sensor_id;sensor_type;location;lat;lon;timestamp;pressure;altitude;pressure_sealevel;temperature;humidity
38630;BME280;24384;51.988;4.644;2023-10-09T00:01:27;102014.25;;;15.29;100.00
38630;BME280;24384;51.988;4.644;2023-10-09T00:03:53;102008.19;;;15.25;100.00
38630;BME280;24384;51.988;4.644;2023-10-09T00:06:19;102012.44;;;15.31;100.00
38630;BME280;24384;51.988;4.644;2023-10-09T00:09:03;102008.66;;;15.36;100.00
38630;BME280;24384;51.988;4.644;2023-10-09T00:11:47;102004.19;;;15.38;100.00
38630;BME280;24384;51.988;4.644;2023-10-09T00:14:13;101998.81;;;15.40;100.00
38630;BME280;24384;51.988;4.644;2023-10-09T00:16:41;102006.59;;;15.46;100.00
38630;BME280;24384;51.988;4.644;2023-10-09T00:19:13;102004.69;;;15.50;100.00
38630;BME280;24384;51.988;4.644;2023-10-09T00:21:49;102006.25;;;15.55;100.00
38630;BME280;24384;51.988;4.644;2023-10-09T00:24:15;101998.28;;;15.55;100.00
38630;BME280;24384;51.988;4.644;2023-10-09T00:26:55;102000.28;;;15.49;100.00
38630;BME280;24384;51.988;4.644;2023-10-09T00:29:26;102009.34;;;15.43;100.00
38630;BME280;24384;51.988;4.644;2023-10-09T00:31:59;102003.19;;;15.41;100.00
38630;BME280;24384;51.988;4.644;2023-10-09T00:34:38;102003.59;;;15.55;100.00
38630;BME280;24384;51.988;4.644;2023-10-09T00:37:07;101998.66;;;15.70;100.00
38630;BME280;24384;51.988;4.644;2023-10-09T00:39:41;101995.34;;;15.63;100.00
38630;BME280;24384;51.988;4.644;2023-10-09T00:42:09;101991.81;;;15.63;100.00
38630;BME280;24384;51.988;4.644;2023-10-09T00:44:37;101999.03;;;15.59;100.00
38630;BME280;24384;51.988;4.644;2023-10-09T00:47:06;102004.41;;;15.57;100.00
38630;BME280;24384;51.988;4.644;2023-10-09T00:49:45;101992.69;;;15.63;100.00
38630;BME280;24384;51.988;4.644;2023-10-09T00:52:11;101999.72;;;15.64;100.00
38630;BME280;24384;51.988;4.644;2023-10-09T00:54:44;101998.19;;;15.58;100.00
38630;BME280;24384;51.988;4.644;2023-10-09T00:57:16;101993.59;;;15.62;100.00
38630;BME280;24384;51.988;4.644;2023-10-09T00:59:43;101985.97;;;15.76;100.00
38630;BME280;24384;51.988;4.644;2023-10-09T01:02:12;101981.88;;;15.68;100.00
38630;BME280;24384;51.988;4.644;2023-10-09T01:04:37;101981.72;;;15.72;100.00
38630;BME280;24384;51.988;4.644;2023-10-09T01:07:05;101986.94;;;15.75;100.00
38630;BME280;24384;51.988;4.644;2023-10-09T01:09:35;101979.78;;;15.78;100.00
38630;BME280;24384;51.988;4.644;2023-10-09T01:12:07;101977.94;;;15.80;100.00
38630;BME280;24384;51.988;4.644;2023-10-09T01:14:41;101973.41;;;15.82;100.00
38630;BME280;24384;51.988;4.644;2023-10-09T01:17:07;101968.75;;;15.88;100.00
38630;BME280;24384;51.988;4.644;2023-10-09T01:19:36;101962.31;;;15.94;100.00
38630;BME280;24384;51.988;4.644;2023-10-09T01:22:02;101962.00;;;16.02;100.00
38630;BME280;24384;51.988;4.644;2023-10-09T01:24:37;101954.56;;;16.11;100.00
38630;BME280;24384;51.988;4.644;2023-10-09T01:27:04;101953.44;;;16.17;100.00
38630;BME280;24384;51.988;4.644;2023-10-09T01:29:33;101942.53;;;16.01;100.00
38630;BME280;24384;51.988;4.644;2023-10-09T01:32:00;101949.66;;;16.01;100.00
38630;BME280;24384;51.988;4.644;2023-10-09T01:34:33;101935.28;;;16.05;100.00
38630;BME280;24384;51.988;4.644;2023-10-09T01:37:09;101940.91;;;15.97;100.00
38630;BME280;24384;51.988;4.644;2023-10-09T01:39:43;101937.88;;;16.06;100.00
38630;BME280;24384;51.988;4.644;2023-10-09T01:42:10;101929.72;;;16.11;100.00
38630;BME280;24384;51.988;4.644;2023-10-09T01:44:36;101929.59;;;16.14;100.00
38630;BME280;24384;51.988;4.644;2023-10-09T01:47:08;101930.31;;;16.19;100.00
38630;BME280;24384;51.988;4.644;2023-10-09T01:49:34;101928.06;;;16.08;100.00
38630;BME280;24384;51.988;4.644;2023-10-09T01:52:02;101934.19;;;16.10;100.00
38630;BME280;24384;51.988;4.644;2023-10-09T01:54:38;101936.50;;;16.20;100.00
38630;BME280;24384;51.988;4.644;2023-10-09T01:57:06;101931.53;;;16.10;100.00
38630;BME280;24384;51.988;4.644;2023-10-09T01:59:35;101920.84;;;16.12;100.00
38630;BME280;24384;51.988;4.644;2023-10-09T02:02:04;101924.41;;;16.11;100.00
38630;BME280;24384;51.988;4.644;2023-10-09T02:04:39;101928.50;;;16.20;100.00
38630;BME280;24384;51.988;4.644;2023-10-09T02:07:06;101928.44;;;16.21;100.00
38630;BME280;24384;51.988;4.644;2023-10-09T02:09:33;101920.84;;;16.12;100.00
38630;BME280;24384;51.988;4.644;2023-10-09T02:11:59;101928.19;;;16.05;100.00
38630;BME280;24384;51.988;4.644;2023-10-09T02:14:26;101922.16;;;16.00;100.00
38630;BME280;24384;51.988;4.644;2023-10-09T02:16:51;101925.78;;;15.99;100.00
38630;BME280;24384;51.988;4.644;2023-10-09T02:19:46;101921.25;;;16.01;100.00
38630;BME280;24384;51.988;4.644;2023-10-09T02:22:15;101906.06;;;16.03;100.00
38630;BME280;24384;51.988;4.644;2023-10-09T02:24:41;101902.38;;;16.07;100.00
38630;BME280;24384;51.988;4.644;2023-10-09T02:27:19;101898.63;;;16.13;100.00
38630;BME280;24384;51.988;4.644;2023-10-09T02:30:05;101902.63;;;16.23;100.00
38630;BME280;24384;51.988;4.644;2023-10-09T02:32:41;101907.28;;;16.18;100.00
38630;BME280;24384;51.988;4.644;2023-10-09T02:35:09;101918.16;;;16.12;100.00
38630;BME280;24384;51.988;4.644;2023-10-09T02:37:43;101916.44;;;16.11;100.00
38630;BME280;24384;51.988;4.644;2023-10-09T02:40:10;101913.75;;;16.11;100.00
38630;BME280;24384;51.988;4.644;2023-10-09T02:42:40;101904.91;;;16.10;100.00
38630;BME280;24384;51.988;4.644;2023-10-09T02:45:08;101905.91;;;16.08;100.00
38630;BME280;24384;51.988;4.644;2023-10-09T02:47:35;101903.25;;;16.08;100.00
38630;BME280;24384;51.988;4.644;2023-10-09T02:50:05;101897.38;;;16.00;100.00
38630;BME280;24384;51.988;4.644;2023-10-09T02:52:34;101900.56;;;16.08;100.00
38630;BME280;24384;51.988;4.644;2023-10-09T02:55:06;101899.13;;;16.23;100.00
38630;BME280;24384;51.988;4.644;2023-10-09T02:57:47;101903.19;;;16.09;100.00
38630;BME280;24384;51.988;4.644;2023-10-09T03:00:16;101892.53;;;16.09;100.00
38630;BME280;24384;51.988;4.644;2023-10-09T03:02:54;101890.56;;;16.15;100.00
38630;BME280;24384;51.988;4.644;2023-10-09T03:05:19;101890.00;;;16.06;100.00
38630;BME280;24384;51.988;4.644;2023-10-09T03:07:46;101878.31;;;16.10;100.00
38630;BME280;24384;51.988;4.644;2023-10-09T03:10:11;101885.00;;;16.21;100.00
38630;BME280;24384;51.988;4.644;2023-10-09T03:12:37;101881.41;;;16.22;100.00
38630;BME280;24384;51.988;4.644;2023-10-09T03:15:05;101875.28;;;16.20;100.00
38630;BME280;24384;51.988;4.644;2023-10-09T03:17:33;101874.91;;;16.29;100.00
38630;BME280;24384;51.988;4.644;2023-10-09T03:20:01;101880.47;;;16.23;100.00
38630;BME280;24384;51.988;4.644;2023-10-09T03:22:27;101875.63;;;16.33;100.00
38630;BME280;24384;51.988;4.644;2023-10-09T03:24:52;101877.81;;;16.23;100.00
38630;BME280;24384;51.988;4.644;2023-10-09T03:27:18;101886.66;;;16.23;100.00
38630;BME280;24384;51.988;4.644;2023-10-09T03:29:43;101891.44;;;16.15;100.00
38630;BME280;24384;51.988;4.644;2023-10-09T03:32:14;101878.63;;;16.25;100.00
38630;BME280;24384;51.988;4.644;2023-10-09T03:34:40;101888.03;;;16.11;100.00
38630;BME280;24384;51.988;4.644;2023-10-09T03:37:05;101893.06;;;16.19;100.00
38630;BME280;24384;51.988;4.644;2023-10-09T03:39:34;101898.81;;;16.31;100.00
38630;BME280;24384;51.988;4.644;2023-10-09T03:42:12;101916.22;;;16.39;100.00
38630;BME280;24384;51.988;4.644;2023-10-09T03:44:44;101910.19;;;16.34;100.00
38630;BME280;24384;51.988;4.644;2023-10-09T03:47:14;101919.78;;;16.38;100.00
38630;BME280;24384;51.988;4.644;2023-10-09T03:49:42;101917.06;;;16.40;100.00
38630;BME280;24384;51.988;4.644;2023-10-09T03:52:08;101917.31;;;16.34;100.00
38630;BME280;24384;51.988;4.644;2023-10-09T03:54:34;101923.13;;;16.43;100.00
38630;BME280;24384;51.988;4.644;2023-10-09T03:57:00;101914.16;;;16.46;100.00
38630;BME280;24384;51.988;4.644;2023-10-09T03:59:26;101899.88;;;16.49;100.00
38630;BME280;24384;51.988;4.644;2023-10-09T04:01:55;101893.78;;;16.45;100.00
38630;BME280;24384;51.988;4.644;2023-10-09T04:04:22;101900.78;;;16.47;100.00
38630;BME280;24384;51.988;4.644;2023-10-09T04:06:48;101910.56;;;16.47;100.00
38630;BME280;24384;51.988;4.644;2023-10-09T04:09:13;101917.69;;;16.46;100.00
38630;BME280;24384;51.988;4.644;2023-10-09T04:11:49;101914.81;;;16.51;100.00
38630;BME280;24384;51.988;4.644;2023-10-09T04:14:33;101916.22;;;16.39;100.00
38630;BME280;24384;51.988;4.644;2023-10-09T04:16:59;101916.34;;;16.36;100.00
38630;BME280;24384;51.988;4.644;2023-10-09T04:19:34;101918.69;;;16.44;100.00
38630;BME280;24384;51.988;4.644;2023-10-09T04:22:13;101898.44;;;16.40;100.00
38630;BME280;24384;51.988;4.644;2023-10-09T04:24:52;101878.63;;;16.47;100.00
38630;BME280;24384;51.988;4.644;2023-10-09T04:27:17;101880.41;;;16.46;100.00
38630;BME280;24384;51.988;4.644;2023-10-09T04:29:42;101875.38;;;16.39;100.00
38630;BME280;24384;51.988;4.644;2023-10-09T04:32:12;101874.47;;;16.40;100.00
38630;BME280;24384;51.988;4.644;2023-10-09T04:34:43;101878.00;;;16.40;100.00
38630;BME280;24384;51.988;4.644;2023-10-09T04:37:17;101874.22;;;16.46;100.00
38630;BME280;24384;51.988;4.644;2023-10-09T04:40:02;101875.13;;;16.45;100.00
38630;BME280;24384;51.988;4.644;2023-10-09T04:42:36;101892.13;;;16.42;100.00
38630;BME280;24384;51.988;4.644;2023-10-09T04:45:05;101901.03;;;16.41;100.00
38630;BME280;24384;51.988;4.644;2023-10-09T04:47:35;101895.59;;;16.44;100.00
38630;BME280;24384;51.988;4.644;2023-10-09T04:50:04;101904.88;;;16.34;100.00
38630;BME280;24384;51.988;4.644;2023-10-09T04:52:50;101903.69;;;16.41;100.00
38630;BME280;24384;51.988;4.644;2023-10-09T04:55:15;101905.84;;;16.54;100.00
38630;BME280;24384;51.988;4.644;2023-10-09T04:57:45;101897.69;;;16.36;100.00
38630;BME280;24384;51.988;4.644;2023-10-09T05:00:11;101902.00;;;16.39;100.00
38630;BME280;24384;51.988;4.644;2023-10-09T05:02:56;101899.34;;;16.39;100.00
38630;BME280;24384;51.988;4.644;2023-10-09T05:05:32;101910.63;;;16.45;100.00
38630;BME280;24384;51.988;4.644;2023-10-09T05:08:20;101919.84;;;16.37;100.00
38630;BME280;24384;51.988;4.644;2023-10-09T05:11:02;101931.06;;;16.45;100.00
38630;BME280;24384;51.988;4.644;2023-10-09T05:13:29;101932.97;;;16.41;100.00
38630;BME280;24384;51.988;4.644;2023-10-09T05:18:57;101946.16;;;16.44;100.00
38630;BME280;24384;51.988;4.644;2023-10-09T05:21:39;101939.34;;;16.37;100.00
38630;BME280;24384;51.988;4.644;2023-10-09T05:24:08;101925.84;;;16.42;100.00
38630;BME280;24384;51.988;4.644;2023-10-09T05:26:46;101931.28;;;16.39;100.00
38630;BME280;24384;51.988;4.644;2023-10-09T05:29:12;101934.72;;;16.42;100.00
38630;BME280;24384;51.988;4.644;2023-10-09T05:31:51;101943.38;;;16.47;100.00
38630;BME280;24384;51.988;4.644;2023-10-09T05:34:29;101940.66;;;16.49;100.00
38630;BME280;24384;51.988;4.644;2023-10-09T05:37:21;101938.47;;;16.59;100.00
38630;BME280;24384;51.988;4.644;2023-10-09T05:40:00;101937.44;;;16.63;100.00
38630;BME280;24384;51.988;4.644;2023-10-09T05:42:29;101945.50;;;16.61;100.00
38630;BME280;24384;51.988;4.644;2023-10-09T05:45:12;101931.31;;;16.61;100.00
38630;BME280;24384;51.988;4.644;2023-10-09T05:47:47;101925.41;;;16.53;100.00
38630;BME280;24384;51.988;4.644;2023-10-09T05:50:31;101919.66;;;16.41;100.00
38630;BME280;24384;51.988;4.644;2023-10-09T05:53:01;101919.72;;;16.40;100.00
38630;BME280;24384;51.988;4.644;2023-10-09T05:55:27;101909.03;;;16.41;100.00
38630;BME280;24384;51.988;4.644;2023-10-09T05:58:11;101901.69;;;16.46;100.00
38630;BME280;24384;51.988;4.644;2023-10-09T06:00:55;101883.31;;;16.40;100.00
38630;BME280;24384;51.988;4.644;2023-10-09T06:03:39;101883.00;;;16.48;100.00
38630;BME280;24384;51.988;4.644;2023-10-09T06:06:14;101892.53;;;16.54;100.00
38630;BME280;24384;51.988;4.644;2023-10-09T06:09:00;101899.34;;;16.61;100.00
38630;BME280;24384;51.988;4.644;2023-10-09T06:11:47;101902.53;;;16.49;100.00
38630;BME280;24384;51.988;4.644;2023-10-09T06:14:22;101903.56;;;16.44;100.00
38630;BME280;24384;51.988;4.644;2023-10-09T06:17:11;101898.59;;;16.57;100.00
38630;BME280;24384;51.988;4.644;2023-10-09T06:19:37;101876.94;;;16.44;100.00
38630;BME280;24384;51.988;4.644;2023-10-09T06:22:09;101860.66;;;16.52;100.00
38630;BME280;24384;51.988;4.644;2023-10-09T06:24:38;101883.00;;;16.48;100.00
38630;BME280;24384;51.988;4.644;2023-10-09T06:27:07;101910.25;;;16.55;100.00
38630;BME280;24384;51.988;4.644;2023-10-09T06:29:40;101915.19;;;16.42;100.00
38630;BME280;24384;51.988;4.644;2023-10-09T06:32:28;101911.75;;;16.40;100.00
38630;BME280;24384;51.988;4.644;2023-10-09T06:34:57;101909.56;;;16.50;100.00
38630;BME280;24384;51.988;4.644;2023-10-09T06:37:46;101922.63;;;16.56;100.00
38630;BME280;24384;51.988;4.644;2023-10-09T06:40:27;101946.53;;;16.57;100.00
38630;BME280;24384;51.988;4.644;2023-10-09T06:43:11;101933.53;;;16.72;100.00
38630;BME280;24384;51.988;4.644;2023-10-09T06:45:57;101937.38;;;16.87;100.00
38630;BME280;24384;51.988;4.644;2023-10-09T06:48:27;101956.25;;;16.80;100.00
38630;BME280;24384;51.988;4.644;2023-10-09T06:51:05;101960.59;;;16.83;100.00
38630;BME280;24384;51.988;4.644;2023-10-09T06:53:50;101964.00;;;16.87;100.00
38630;BME280;24384;51.988;4.644;2023-10-09T06:56:28;101948.13;;;16.83;100.00
38630;BME280;24384;51.988;4.644;2023-10-09T06:58:58;101944.59;;;16.83;100.00
38630;BME280;24384;51.988;4.644;2023-10-09T07:01:27;101930.25;;;16.87;100.00
38630;BME280;24384;51.988;4.644;2023-10-09T07:04:05;101946.41;;;16.82;100.00
38630;BME280;24384;51.988;4.644;2023-10-09T07:06:49;101940.31;;;16.79;100.00
38630;BME280;24384;51.988;4.644;2023-10-09T07:09:16;101950.00;;;16.81;100.00
38630;BME280;24384;51.988;4.644;2023-10-09T07:11:45;101947.38;;;16.80;100.00
38630;BME280;24384;51.988;4.644;2023-10-09T07:14:17;101929.53;;;16.82;100.00
38630;BME280;24384;51.988;4.644;2023-10-09T07:17:05;101892.69;;;16.93;100.00
38630;BME280;24384;51.988;4.644;2023-10-09T07:20:08;101887.16;;;16.98;100.00
38630;BME280;24384;51.988;4.644;2023-10-09T07:22:52;101910.47;;;16.93;100.00
38630;BME280;24384;51.988;4.644;2023-10-09T07:25:19;101911.94;;;17.00;100.00
38630;BME280;24384;51.988;4.644;2023-10-09T07:28:03;101928.44;;;17.08;100.00
38630;BME280;24384;51.988;4.644;2023-10-09T07:30:43;101914.53;;;17.02;100.00
38630;BME280;24384;51.988;4.644;2023-10-09T07:33:10;101916.16;;;17.06;100.00
38630;BME280;24384;51.988;4.644;2023-10-09T07:35:37;101916.69;;;16.93;100.00
38630;BME280;24384;51.988;4.644;2023-10-09T07:38:22;101912.59;;;17.05;100.00
38630;BME280;24384;51.988;4.644;2023-10-09T07:40:50;101921.69;;;17.01;100.00
38630;BME280;24384;51.988;4.644;2023-10-09T07:43:35;101914.59;;;17.21;100.00
38630;BME280;24384;51.988;4.644;2023-10-09T07:46:05;101899.94;;;17.31;100.00
38630;BME280;24384;51.988;4.644;2023-10-09T07:48:31;101912.47;;;17.29;100.00
38630;BME280;24384;51.988;4.644;2023-10-09T07:51:19;101905.78;;;17.39;100.00
38630;BME280;24384;51.988;4.644;2023-10-09T07:53:49;101904.84;;;17.40;100.00
38630;BME280;24384;51.988;4.644;2023-10-09T07:56:22;101897.38;;;17.48;100.00
38630;BME280;24384;51.988;4.644;2023-10-09T07:58:48;101901.78;;;17.49;100.00
38630;BME280;24384;51.988;4.644;2023-10-09T08:01:15;101899.38;;;17.43;100.00
38630;BME280;24384;51.988;4.644;2023-10-09T08:03:48;101898.38;;;17.46;100.00
38630;BME280;24384;51.988;4.644;2023-10-09T08:06:25;101901.28;;;17.60;100.00
38630;BME280;24384;51.988;4.644;2023-10-09T08:09:16;101908.38;;;17.80;100.00
38630;BME280;24384;51.988;4.644;2023-10-09T08:11:46;101921.56;;;17.83;100.00
38630;BME280;24384;51.988;4.644;2023-10-09T08:14:12;101937.25;;;17.91;100.00
38630;BME280;24384;51.988;4.644;2023-10-09T08:16:56;101955.41;;;18.21;100.00
38630;BME280;24384;51.988;4.644;2023-10-09T08:19:55;101949.53;;;18.14;100.00
38630;BME280;24384;51.988;4.644;2023-10-09T08:22:28;101964.75;;;18.12;100.00
38630;BME280;24384;51.988;4.644;2023-10-09T08:24:54;101972.09;;;18.26;100.00
38630;BME280;24384;51.988;4.644;2023-10-09T08:29:56;101980.72;;;18.50;100.00
38630;BME280;24384;51.988;4.644;2023-10-09T08:32:40;101964.84;;;18.66;100.00
38630;BME280;24384;51.988;4.644;2023-10-09T08:35:11;101982.03;;;18.78;100.00
38630;BME280;24384;51.988;4.644;2023-10-09T08:37:58;101973.72;;;18.84;100.00
38630;BME280;24384;51.988;4.644;2023-10-09T08:40:43;101985.38;;;18.83;100.00
38630;BME280;24384;51.988;4.644;2023-10-09T08:43:21;101983.28;;;18.90;100.00
38630;BME280;24384;51.988;4.644;2023-10-09T08:45:54;101993.28;;;19.04;100.00
38630;BME280;24384;51.988;4.644;2023-10-09T08:48:26;101998.94;;;19.15;100.00
38630;BME280;24384;51.988;4.644;2023-10-09T08:50:52;102013.13;;;19.35;100.00
38630;BME280;24384;51.988;4.644;2023-10-09T08:53:22;102008.94;;;19.29;100.00
38630;BME280;24384;51.988;4.644;2023-10-09T08:55:50;102020.81;;;19.41;100.00
38630;BME280;24384;51.988;4.644;2023-10-09T08:58:17;102025.28;;;19.58;100.00
38630;BME280;24384;51.988;4.644;2023-10-09T09:00:46;102022.00;;;19.53;100.00
38630;BME280;24384;51.988;4.644;2023-10-09T09:03:15;102029.25;;;19.33;100.00
38630;BME280;24384;51.988;4.644;2023-10-09T09:05:45;102023.88;;;19.33;100.00
38630;BME280;24384;51.988;4.644;2023-10-09T09:08:25;102023.66;;;19.38;100.00
38630;BME280;24384;51.988;4.644;2023-10-09T09:11:23;102028.59;;;19.45;100.00
38630;BME280;24384;51.988;4.644;2023-10-09T09:14:00;102024.13;;;19.63;100.00
38630;BME280;24384;51.988;4.644;2023-10-09T09:16:30;102027.56;;;19.83;100.00
38630;BME280;24384;51.988;4.644;2023-10-09T09:21:27;102037.84;;;19.91;100.00
38630;BME280;24384;51.988;4.644;2023-10-09T09:24:00;102035.44;;;19.86;100.00
38630;BME280;24384;51.988;4.644;2023-10-09T09:26:37;102034.56;;;19.85;100.00
38630;BME280;24384;51.988;4.644;2023-10-09T09:29:04;102034.03;;;19.79;100.00
38630;BME280;24384;51.988;4.644;2023-10-09T09:31:31;102032.34;;;19.94;100.00
38630;BME280;24384;51.988;4.644;2023-10-09T09:34:06;102027.41;;;19.86;100.00
38630;BME280;24384;51.988;4.644;2023-10-09T09:36:54;102027.72;;;19.97;100.00
38630;BME280;24384;51.988;4.644;2023-10-09T09:39:21;102026.22;;;19.92;100.00
38630;BME280;24384;51.988;4.644;2023-10-09T09:41:56;102026.63;;;19.84;100.00
38630;BME280;24384;51.988;4.644;2023-10-09T09:44:22;102038.75;;;19.91;100.00
38630;BME280;24384;51.988;4.644;2023-10-09T09:46:52;102028.75;;;20.11;100.00
38630;BME280;24384;51.988;4.644;2023-10-09T09:49:20;102028.25;;;20.20;100.00
38630;BME280;24384;51.988;4.644;2023-10-09T09:51:47;102031.22;;;20.31;100.00
38630;BME280;24384;51.988;4.644;2023-10-09T09:54:13;102032.94;;;20.32;100.00
38630;BME280;24384;51.988;4.644;2023-10-09T09:56:43;102032.25;;;20.29;100.00
38630;BME280;24384;51.988;4.644;2023-10-09T09:59:15;102028.97;;;20.24;100.00
38630;BME280;24384;51.988;4.644;2023-10-09T10:01:49;102021.00;;;20.22;100.00
38630;BME280;24384;51.988;4.644;2023-10-09T10:04:25;102018.75;;;20.14;100.00
38630;BME280;24384;51.988;4.644;2023-10-09T10:06:52;102029.47;;;20.14;100.00
38630;BME280;24384;51.988;4.644;2023-10-09T10:09:40;102027.66;;;19.81;100.00
38630;BME280;24384;51.988;4.644;2023-10-09T10:12:09;102029.41;;;19.98;100.00
38630;BME280;24384;51.988;4.644;2023-10-09T10:14:56;102029.56;;;20.13;100.00
38630;BME280;24384;51.988;4.644;2023-10-09T10:17:27;102027.75;;;20.29;100.00
38630;BME280;24384;51.988;4.644;2023-10-09T10:22:29;102047.16;;;20.66;100.00
38630;BME280;24384;51.988;4.644;2023-10-09T10:24:55;102042.91;;;20.78;100.00
38630;BME280;24384;51.988;4.644;2023-10-09T10:27:25;102046.28;;;20.82;100.00
38630;BME280;24384;51.988;4.644;2023-10-09T10:35:17;102044.88;;;21.37;99.04
38630;BME280;24384;51.988;4.644;2023-10-09T10:37:45;102042.94;;;21.39;98.61
38630;BME280;24384;51.988;4.644;2023-10-09T10:40:26;102047.94;;;21.75;97.33
38630;BME280;24384;51.988;4.644;2023-10-09T10:43:06;102048.91;;;21.89;97.52
38630;BME280;24384;51.988;4.644;2023-10-09T10:45:37;102054.09;;;22.06;95.34
38630;BME280;24384;51.988;4.644;2023-10-09T10:48:09;102062.81;;;21.95;96.18
38630;BME280;24384;51.988;4.644;2023-10-09T10:50:56;102059.09;;;22.12;95.90
38630;BME280;24384;51.988;4.644;2023-10-09T10:53:22;102060.22;;;22.23;95.12
38630;BME280;24384;51.988;4.644;2023-10-09T10:55:54;102074.41;;;22.68;91.94
38630;BME280;24384;51.988;4.644;2023-10-09T10:58:21;102064.22;;;23.00;91.44
38630;BME280;24384;51.988;4.644;2023-10-09T11:00:56;102061.56;;;22.59;91.23
38630;BME280;24384;51.988;4.644;2023-10-09T11:03:22;102061.72;;;22.70;91.69
38630;BME280;24384;51.988;4.644;2023-10-09T11:06:30;102066.06;;;22.15;93.50
38630;BME280;24384;51.988;4.644;2023-10-09T11:09:04;102055.81;;;21.93;94.93
38630;BME280;24384;51.988;4.644;2023-10-09T11:11:51;102050.06;;;22.42;92.83
38630;BME280;24384;51.988;4.644;2023-10-09T11:14:45;102045.38;;;23.00;89.31
38630;BME280;24384;51.988;4.644;2023-10-09T11:17:14;102040.38;;;23.09;90.57
38630;BME280;24384;51.988;4.644;2023-10-09T11:19:49;102043.81;;;22.83;92.15
38630;BME280;24384;51.988;4.644;2023-10-09T11:22:17;102047.56;;;22.81;90.38
38630;BME280;24384;51.988;4.644;2023-10-09T11:25:01;102041.53;;;22.35;93.46
38630;BME280;24384;51.988;4.644;2023-10-09T11:27:40;102048.97;;;22.59;93.12
38630;BME280;24384;51.988;4.644;2023-10-09T11:30:15;102042.72;;;23.40;89.54
38630;BME280;24384;51.988;4.644;2023-10-09T11:32:46;102047.88;;;24.34;84.05
38630;BME280;24384;51.988;4.644;2023-10-09T11:35:15;102045.88;;;25.34;80.52
38630;BME280;24384;51.988;4.644;2023-10-09T11:37:55;102044.66;;;25.02;79.06
38630;BME280;24384;51.988;4.644;2023-10-09T11:40:31;102035.53;;;25.28;79.29
38630;BME280;24384;51.988;4.644;2023-10-09T11:43:15;102035.94;;;24.75;80.90
38630;BME280;24384;51.988;4.644;2023-10-09T11:45:42;102029.50;;;24.89;82.36
38630;BME280;24384;51.988;4.644;2023-10-09T11:48:20;102043.19;;;25.10;81.40
38630;BME280;24384;51.988;4.644;2023-10-09T11:51:13;102031.22;;;24.65;79.02
38630;BME280;24384;51.988;4.644;2023-10-09T11:53:44;102041.56;;;24.09;82.73
38630;BME280;24384;51.988;4.644;2023-10-09T11:56:15;102034.88;;;23.63;86.43
38630;BME280;24384;51.988;4.644;2023-10-09T11:58:49;102039.19;;;22.85;86.63
38630;BME280;24384;51.988;4.644;2023-10-09T12:01:17;102038.06;;;22.48;89.42
38630;BME280;24384;51.988;4.644;2023-10-09T12:03:45;102043.72;;;22.14;92.51
38630;BME280;24384;51.988;4.644;2023-10-09T12:06:15;102039.69;;;21.78;94.36
38630;BME280;24384;51.988;4.644;2023-10-09T12:08:47;102034.91;;;21.39;96.99
38630;BME280;24384;51.988;4.644;2023-10-09T12:11:12;102025.72;;;21.43;97.91
38630;BME280;24384;51.988;4.644;2023-10-09T12:13:39;102018.56;;;21.58;98.75
38630;BME280;24384;51.988;4.644;2023-10-09T12:16:08;102024.66;;;21.45;99.03
38630;BME280;24384;51.988;4.644;2023-10-09T12:18:36;102013.56;;;21.52;98.28
38630;BME280;24384;51.988;4.644;2023-10-09T12:21:04;102019.25;;;21.31;98.46
38630;BME280;24384;51.988;4.644;2023-10-09T12:23:30;102018.94;;;21.21;98.83
38630;BME280;24384;51.988;4.644;2023-10-09T12:26:01;102015.03;;;21.27;99.75
38630;BME280;24384;51.988;4.644;2023-10-09T12:28:26;102016.66;;;21.60;98.63
38630;BME280;24384;51.988;4.644;2023-10-09T12:30:52;102022.63;;;21.65;96.93
38630;BME280;24384;51.988;4.644;2023-10-09T12:33:18;102024.63;;;21.61;97.20
38630;BME280;24384;51.988;4.644;2023-10-09T12:35:45;102029.16;;;21.75;96.06
38630;BME280;24384;51.988;4.644;2023-10-09T12:38:11;102021.84;;;21.77;96.20
38630;BME280;24384;51.988;4.644;2023-10-09T12:40:38;102025.19;;;21.81;97.32
38630;BME280;24384;51.988;4.644;2023-10-09T12:43:06;102028.59;;;21.85;97.85
38630;BME280;24384;51.988;4.644;2023-10-09T12:45:33;102024.53;;;21.63;96.26
38630;BME280;24384;51.988;4.644;2023-10-09T12:47:59;102027.16;;;21.49;97.14
38630;BME280;24384;51.988;4.644;2023-10-09T12:50:25;102018.84;;;21.53;97.87
38630;BME280;24384;51.988;4.644;2023-10-09T12:52:57;102020.59;;;21.54;98.26
38630;BME280;24384;51.988;4.644;2023-10-09T12:55:27;102029.91;;;21.77;97.34
38630;BME280;24384;51.988;4.644;2023-10-09T12:58:00;102040.19;;;21.85;96.76
38630;BME280;24384;51.988;4.644;2023-10-09T13:00:32;102035.28;;;21.63;97.38
38630;BME280;24384;51.988;4.644;2023-10-09T13:02:57;102038.53;;;21.54;96.21
38630;BME280;24384;51.988;4.644;2023-10-09T13:05:26;102038.25;;;21.42;96.50
38630;BME280;24384;51.988;4.644;2023-10-09T13:07:54;102033.22;;;21.22;97.48
38630;BME280;24384;51.988;4.644;2023-10-09T13:10:25;102031.47;;;21.21;99.98
38630;BME280;24384;51.988;4.644;2023-10-09T13:12:51;102025.91;;;21.40;99.22
38630;BME280;24384;51.988;4.644;2023-10-09T13:15:21;102024.56;;;21.47;96.78
38630;BME280;24384;51.988;4.644;2023-10-09T13:17:46;102029.53;;;21.69;98.52
38630;BME280;24384;51.988;4.644;2023-10-09T13:20:12;102026.63;;;21.58;96.06
38630;BME280;24384;51.988;4.644;2023-10-09T13:22:41;102030.19;;;21.58;96.47
38630;BME280;24384;51.988;4.644;2023-10-09T13:25:09;102034.91;;;21.69;97.31
38630;BME280;24384;51.988;4.644;2023-10-09T13:27:40;102034.91;;;21.69;98.38